sensor_id;sensor_type;location;lat;lon;timestamp;temperature;humidity
52799;DHT22;38667;42.872;74.622;2024-02-15T00:00:30;8.00;54.70
52799;DHT22;38667;42.872;74.622;2024-02-15T00:02:57;8.00;56.00
52799;DHT22;38667;42.872;74.622;2024-02-15T00:05:26;8.00;55.50
52799;DHT22;38667;42.872;74.622;2024-02-15T00:07:53;8.10;54.70
52799;DHT22;38667;42.872;74.622;2024-02-15T00:10:19;8.10;54.40
52799;DHT22;38667;42.872;74.622;2024-02-15T00:12:46;8.00;54.50
52799;DHT22;38667;42.872;74.622;2024-02-15T00:15:12;8.00;55.30
52799;DHT22;38667;42.872;74.622;2024-02-15T00:17:38;7.90;56.00
52799;DHT22;38667;42.872;74.622;2024-02-15T00:20:06;7.80;56.50
52799;DHT22;38667;42.872;74.622;2024-02-15T00:22:34;7.70;56.30
52799;DHT22;38667;42.872;74.622;2024-02-15T00:25:00;7.80;56.40
52799;DHT22;38667;42.872;74.622;2024-02-15T00:27:26;7.70;56.30
52799;DHT22;38667;42.872;74.622;2024-02-15T00:29:53;7.70;58.00
52799;DHT22;38667;42.872;74.622;2024-02-15T00:32:19;7.50;57.30
52799;DHT22;38667;42.872;74.622;2024-02-15T00:34:45;7.40;58.50
52799;DHT22;38667;42.872;74.622;2024-02-15T00:37:12;7.40;57.90
52799;DHT22;38667;42.872;74.622;2024-02-15T00:39:40;7.40;58.30
52799;DHT22;38667;42.872;74.622;2024-02-15T00:42:06;7.40;58.60
52799;DHT22;38667;42.872;74.622;2024-02-15T00:44:32;7.40;59.10
52799;DHT22;38667;42.872;74.622;2024-02-15T00:46:59;7.40;58.90
52799;DHT22;38667;42.872;74.622;2024-02-15T00:49:25;7.50;57.70
52799;DHT22;38667;42.872;74.622;2024-02-15T00:51:51;7.60;56.10
52799;DHT22;38667;42.872;74.622;2024-02-15T00:54:18;7.90;52.20
52799;DHT22;38667;42.872;74.622;2024-02-15T00:56:46;8.20;52.90
52799;DHT22;38667;42.872;74.622;2024-02-15T00:59:12;8.30;52.50
52799;DHT22;38667;42.872;74.622;2024-02-15T01:01:38;8.10;54.60
52799;DHT22;38667;42.872;74.622;2024-02-15T01:04:05;7.90;55.10
52799;DHT22;38667;42.872;74.622;2024-02-15T01:06:31;7.70;55.80
52799;DHT22;38667;42.872;74.622;2024-02-15T01:08:58;7.60;56.20
52799;DHT22;38667;42.872;74.622;2024-02-15T01:11:25;7.40;56.00
52799;DHT22;38667;42.872;74.622;2024-02-15T01:13:53;7.30;56.60
52799;DHT22;38667;42.872;74.622;2024-02-15T01:16:19;7.20;57.50
52799;DHT22;38667;42.872;74.622;2024-02-15T01:18:46;7.10;58.90
52799;DHT22;38667;42.872;74.622;2024-02-15T01:21:12;7.10;58.80
52799;DHT22;38667;42.872;74.622;2024-02-15T01:23:39;7.10;58.80
52799;DHT22;38667;42.872;74.622;2024-02-15T01:26:05;7.10;58.80
52799;DHT22;38667;42.872;74.622;2024-02-15T01:28:31;7.10;58.20
52799;DHT22;38667;42.872;74.622;2024-02-15T01:30:59;7.10;57.90
52799;DHT22;38667;42.872;74.622;2024-02-15T01:33:26;7.10;58.40
52799;DHT22;38667;42.872;74.622;2024-02-15T01:35:52;7.30;58.10
52799;DHT22;38667;42.872;74.622;2024-02-15T01:38:18;7.20;58.60
52799;DHT22;38667;42.872;74.622;2024-02-15T01:40:47;7.10;58.70
52799;DHT22;38667;42.872;74.622;2024-02-15T01:43:14;7.00;58.90
52799;DHT22;38667;42.872;74.622;2024-02-15T01:45:40;7.00;58.30
52799;DHT22;38667;42.872;74.622;2024-02-15T01:48:08;7.00;58.50
52799;DHT22;38667;42.872;74.622;2024-02-15T01:50:35;6.90;59.20
52799;DHT22;38667;42.872;74.622;2024-02-15T01:53:05;7.00;58.50
52799;DHT22;38667;42.872;74.622;2024-02-15T01:55:33;6.90;58.20
52799;DHT22;38667;42.872;74.622;2024-02-15T01:57:59;6.90;58.00
52799;DHT22;38667;42.872;74.622;2024-02-15T02:00:26;6.90;57.40
52799;DHT22;38667;42.872;74.622;2024-02-15T02:02:53;6.90;57.90
52799;DHT22;38667;42.872;74.622;2024-02-15T02:05:21;6.90;58.10
52799;DHT22;38667;42.872;74.622;2024-02-15T02:07:48;7.00;56.90
52799;DHT22;38667;42.872;74.622;2024-02-15T02:10:14;7.20;56.70
52799;DHT22;38667;42.872;74.622;2024-02-15T02:12:41;7.20;57.80
52799;DHT22;38667;42.872;74.622;2024-02-15T02:15:08;7.10;58.00
52799;DHT22;38667;42.872;74.622;2024-02-15T02:17:35;7.10;57.80
52799;DHT22;38667;42.872;74.622;2024-02-15T02:20:02;7.10;56.90
52799;DHT22;38667;42.872;74.622;2024-02-15T02:22:30;7.10;57.60
52799;DHT22;38667;42.872;74.622;2024-02-15T02:25:01;7.10;57.80
52799;DHT22;38667;42.872;74.622;2024-02-15T02:27:28;7.40;55.40
52799;DHT22;38667;42.872;74.622;2024-02-15T02:29:54;7.40;55.50
52799;DHT22;38667;42.872;74.622;2024-02-15T02:32:21;7.50;56.20
52799;DHT22;38667;42.872;74.622;2024-02-15T02:34:47;7.60;56.10
52799;DHT22;38667;42.872;74.622;2024-02-15T02:37:13;7.60;56.10
52799;DHT22;38667;42.872;74.622;2024-02-15T02:39:40;7.80;53.60
52799;DHT22;38667;42.872;74.622;2024-02-15T02:42:08;7.90;53.00
52799;DHT22;38667;42.872;74.622;2024-02-15T02:44:35;8.00;53.90
52799;DHT22;38667;42.872;74.622;2024-02-15T02:47:01;8.00;53.90
52799;DHT22;38667;42.872;74.622;2024-02-15T02:49:28;8.10;54.80
52799;DHT22;38667;42.872;74.622;2024-02-15T02:51:54;8.10;53.20
52799;DHT22;38667;42.872;74.622;2024-02-15T02:54:20;8.20;53.80
52799;DHT22;38667;42.872;74.622;2024-02-15T02:56:47;8.30;54.30
52799;DHT22;38667;42.872;74.622;2024-02-15T02:59:15;8.50;51.50
52799;DHT22;38667;42.872;74.622;2024-02-15T03:01:41;8.60;51.10
52799;DHT22;38667;42.872;74.622;2024-02-15T03:04:07;8.70;52.00
52799;DHT22;38667;42.872;74.622;2024-02-15T03:06:34;8.80;51.30
52799;DHT22;38667;42.872;74.622;2024-02-15T03:09:00;8.80;50.20
52799;DHT22;38667;42.872;74.622;2024-02-15T03:11:27;9.00;46.30
52799;DHT22;38667;42.872;74.622;2024-02-15T03:13:53;9.30;47.80
52799;DHT22;38667;42.872;74.622;2024-02-15T03:16:23;9.40;47.00
52799;DHT22;38667;42.872;74.622;2024-02-15T03:18:50;9.50;49.40
52799;DHT22;38667;42.872;74.622;2024-02-15T03:21:16;9.40;49.20
52799;DHT22;38667;42.872;74.622;2024-02-15T03:23:43;9.40;48.80
52799;DHT22;38667;42.872;74.622;2024-02-15T03:26:09;9.50;49.90
52799;DHT22;38667;42.872;74.622;2024-02-15T03:28:35;9.40;50.50
52799;DHT22;38667;42.872;74.622;2024-02-15T03:31:02;9.50;51.90
52799;DHT22;38667;42.872;74.622;2024-02-15T03:33:30;9.60;50.20
52799;DHT22;38667;42.872;74.622;2024-02-15T03:35:56;9.60;51.20
52799;DHT22;38667;42.872;74.622;2024-02-15T03:38:23;9.80;44.50
52799;DHT22;38667;42.872;74.622;2024-02-15T03:40:49;10.20;43.90
52799;DHT22;38667;42.872;74.622;2024-02-15T03:43:15;10.40;43.00
52799;DHT22;38667;42.872;74.622;2024-02-15T03:45:42;10.60;41.30
52799;DHT22;38667;42.872;74.622;2024-02-15T03:48:08;10.80;40.90
52799;DHT22;38667;42.872;74.622;2024-02-15T03:50:36;11.10;39.50
52799;DHT22;38667;42.872;74.622;2024-02-15T03:53:02;11.20;40.50
52799;DHT22;38667;42.872;74.622;2024-02-15T03:55:29;11.20;43.00
52799;DHT22;38667;42.872;74.622;2024-02-15T03:57:55;11.20;43.70
52799;DHT22;38667;42.872;74.622;2024-02-15T04:00:22;11.20;44.20
52799;DHT22;38667;42.872;74.622;2024-02-15T04:02:48;11.30;45.20
52799;DHT22;38667;42.872;74.622;2024-02-15T04:05:14;11.30;44.60
52799;DHT22;38667;42.872;74.622;2024-02-15T04:07:42;11.40;42.70
52799;DHT22;38667;42.872;74.622;2024-02-15T04:10:10;11.40;40.80
52799;DHT22;38667;42.872;74.622;2024-02-15T04:12:36;11.60;38.30
52799;DHT22;38667;42.872;74.622;2024-02-15T04:15:03;11.80;41.00
52799;DHT22;38667;42.872;74.622;2024-02-15T04:17:29;11.80;42.20
52799;DHT22;38667;42.872;74.622;2024-02-15T04:19:56;11.90;38.40
52799;DHT22;38667;42.872;74.622;2024-02-15T04:22:22;12.10;40.50
52799;DHT22;38667;42.872;74.622;2024-02-15T04:24:50;12.20;40.90
52799;DHT22;38667;42.872;74.622;2024-02-15T04:27:16;12.30;41.70
52799;DHT22;38667;42.872;74.622;2024-02-15T04:29:43;12.40;41.60
52799;DHT22;38667;42.872;74.622;2024-02-15T04:32:09;12.40;40.50
52799;DHT22;38667;42.872;74.622;2024-02-15T04:34:36;12.40;38.70
52799;DHT22;38667;42.872;74.622;2024-02-15T04:37:03;12.40;39.30
52799;DHT22;38667;42.872;74.622;2024-02-15T04:39:30;12.50;39.50
52799;DHT22;38667;42.872;74.622;2024-02-15T04:41:57;12.60;38.80
52799;DHT22;38667;42.872;74.622;2024-02-15T04:44:24;12.70;39.80
52799;DHT22;38667;42.872;74.622;2024-02-15T04:46:50;12.80;39.70
52799;DHT22;38667;42.872;74.622;2024-02-15T04:49:17;12.80;39.50
52799;DHT22;38667;42.872;74.622;2024-02-15T04:51:43;12.80;37.30
52799;DHT22;38667;42.872;74.622;2024-02-15T04:54:10;12.90;37.60
52799;DHT22;38667;42.872;74.622;2024-02-15T04:56:37;13.00;37.00
52799;DHT22;38667;42.872;74.622;2024-02-15T04:59:05;13.20;37.30
52799;DHT22;38667;42.872;74.622;2024-02-15T05:01:31;13.40;37.20
52799;DHT22;38667;42.872;74.622;2024-02-15T05:03:57;13.60;36.60
52799;DHT22;38667;42.872;74.622;2024-02-15T05:06:24;13.90;37.00
52799;DHT22;38667;42.872;74.622;2024-02-15T05:08:50;14.00;37.50
52799;DHT22;38667;42.872;74.622;2024-02-15T05:11:16;14.10;36.70
52799;DHT22;38667;42.872;74.622;2024-02-15T05:13:43;14.10;38.10
52799;DHT22;38667;42.872;74.622;2024-02-15T05:16:11;14.10;35.70
52799;DHT22;38667;42.872;74.622;2024-02-15T05:21:41;14.30;35.70
52799;DHT22;38667;42.872;74.622;2024-02-15T05:24:07;14.40;36.50
52799;DHT22;38667;42.872;74.622;2024-02-15T05:26:33;14.50;35.60
52799;DHT22;38667;42.872;74.622;2024-02-15T05:29:00;14.60;36.00
52799;DHT22;38667;42.872;74.622;2024-02-15T05:31:27;14.70;36.50
52799;DHT22;38667;42.872;74.622;2024-02-15T05:33:54;14.80;35.60
52799;DHT22;38667;42.872;74.622;2024-02-15T05:36:21;14.80;34.70
52799;DHT22;38667;42.872;74.622;2024-02-15T05:38:48;14.90;33.90
52799;DHT22;38667;42.872;74.622;2024-02-15T05:41:15;15.00;33.00
52799;DHT22;38667;42.872;74.622;2024-02-15T05:43:41;15.10;33.40
52799;DHT22;38667;42.872;74.622;2024-02-15T05:46:08;15.10;33.50
52799;DHT22;38667;42.872;74.622;2024-02-15T05:48:36;15.20;33.70
52799;DHT22;38667;42.872;74.622;2024-02-15T05:51:03;15.30;34.70
52799;DHT22;38667;42.872;74.622;2024-02-15T05:53:30;15.40;33.60
52799;DHT22;38667;42.872;74.622;2024-02-15T05:55:57;15.50;34.10
52799;DHT22;38667;42.872;74.622;2024-02-15T05:58:23;15.60;33.60
52799;DHT22;38667;42.872;74.622;2024-02-15T06:00:49;15.70;34.70
52799;DHT22;38667;42.872;74.622;2024-02-15T06:03:16;15.70;32.90
52799;DHT22;38667;42.872;74.622;2024-02-15T06:05:44;15.80;33.10
52799;DHT22;38667;42.872;74.622;2024-02-15T06:08:11;15.90;32.60
52799;DHT22;38667;42.872;74.622;2024-02-15T06:10:37;15.90;32.90
52799;DHT22;38667;42.872;74.622;2024-02-15T06:13:04;16.00;32.60
52799;DHT22;38667;42.872;74.622;2024-02-15T06:15:30;16.00;33.20
52799;DHT22;38667;42.872;74.622;2024-02-15T06:17:56;16.00;33.30
52799;DHT22;38667;42.872;74.622;2024-02-15T06:20:23;16.00;32.80
52799;DHT22;38667;42.872;74.622;2024-02-15T06:22:51;16.00;32.90
52799;DHT22;38667;42.872;74.622;2024-02-15T06:25:17;16.00;33.20
52799;DHT22;38667;42.872;74.622;2024-02-15T06:27:43;16.00;33.60
52799;DHT22;38667;42.872;74.622;2024-02-15T06:30:11;16.10;34.10
52799;DHT22;38667;42.872;74.622;2024-02-15T06:32:37;16.20;34.50
52799;DHT22;38667;42.872;74.622;2024-02-15T06:35:04;16.40;33.80
52799;DHT22;38667;42.872;74.622;2024-02-15T06:37:37;16.50;33.30
52799;DHT22;38667;42.872;74.622;2024-02-15T06:40:07;16.60;33.20
52799;DHT22;38667;42.872;74.622;2024-02-15T06:42:33;16.70;34.00
52799;DHT22;38667;42.872;74.622;2024-02-15T06:44:59;16.80;34.60
52799;DHT22;38667;42.872;74.622;2024-02-15T06:47:26;16.80;35.00
52799;DHT22;38667;42.872;74.622;2024-02-15T06:49:52;16.70;35.50
52799;DHT22;38667;42.872;74.622;2024-02-15T06:52:18;16.80;36.50
52799;DHT22;38667;42.872;74.622;2024-02-15T06:54:45;16.90;35.40
52799;DHT22;38667;42.872;74.622;2024-02-15T06:57:13;17.00;35.10
52799;DHT22;38667;42.872;74.622;2024-02-15T06:59:39;17.10;35.20
52799;DHT22;38667;42.872;74.622;2024-02-15T07:02:06;17.20;35.70
52799;DHT22;38667;42.872;74.622;2024-02-15T07:04:32;17.30;35.40
52799;DHT22;38667;42.872;74.622;2024-02-15T07:06:59;17.40;33.70
52799;DHT22;38667;42.872;74.622;2024-02-15T07:09:25;17.60;33.90
52799;DHT22;38667;42.872;74.622;2024-02-15T07:11:52;17.60;32.70
52799;DHT22;38667;42.872;74.622;2024-02-15T07:14:20;17.70;31.20
52799;DHT22;38667;42.872;74.622;2024-02-15T07:16:47;17.80;31.20
52799;DHT22;38667;42.872;74.622;2024-02-15T07:19:13;17.80;31.20
52799;DHT22;38667;42.872;74.622;2024-02-15T07:21:40;17.80;31.90
52799;DHT22;38667;42.872;74.622;2024-02-15T07:24:06;17.80;32.10
52799;DHT22;38667;42.872;74.622;2024-02-15T07:26:33;17.80;32.50
52799;DHT22;38667;42.872;74.622;2024-02-15T07:28:59;17.80;34.20
52799;DHT22;38667;42.872;74.622;2024-02-15T07:31:29;17.60;35.10
52799;DHT22;38667;42.872;74.622;2024-02-15T07:33:56;17.50;35.30
52799;DHT22;38667;42.872;74.622;2024-02-15T07:36:24;17.40;35.20
52799;DHT22;38667;42.872;74.622;2024-02-15T07:38:50;17.40;36.40
52799;DHT22;38667;42.872;74.622;2024-02-15T07:41:17;17.20;36.40
52799;DHT22;38667;42.872;74.622;2024-02-15T07:43:44;17.10;36.30
52799;DHT22;38667;42.872;74.622;2024-02-15T07:46:12;17.10;36.60
52799;DHT22;38667;42.872;74.622;2024-02-15T07:48:40;17.10;37.50
52799;DHT22;38667;42.872;74.622;2024-02-15T07:51:06;17.10;36.40
52799;DHT22;38667;42.872;74.622;2024-02-15T07:53:33;17.00;36.50
52799;DHT22;38667;42.872;74.622;2024-02-15T07:55:59;17.00;36.50
52799;DHT22;38667;42.872;74.622;2024-02-15T07:58:25;17.00;36.60
52799;DHT22;38667;42.872;74.622;2024-02-15T08:00:52;17.00;36.50
52799;DHT22;38667;42.872;74.622;2024-02-15T08:03:18;17.00;36.60
52799;DHT22;38667;42.872;74.622;2024-02-15T08:05:46;17.00;36.80
52799;DHT22;38667;42.872;74.622;2024-02-15T08:08:12;16.90;36.10
52799;DHT22;38667;42.872;74.622;2024-02-15T08:10:39;16.90;36.50
52799;DHT22;38667;42.872;74.622;2024-02-15T08:13:05;16.90;36.40
52799;DHT22;38667;42.872;74.622;2024-02-15T08:15:31;16.90;36.40
52799;DHT22;38667;42.872;74.622;2024-02-15T08:17:58;16.80;36.50
52799;DHT22;38667;42.872;74.622;2024-02-15T08:20:24;16.80;36.70
52799;DHT22;38667;42.872;74.622;2024-02-15T08:22:52;16.80;36.10
52799;DHT22;38667;42.872;74.622;2024-02-15T08:25:18;16.80;36.30
52799;DHT22;38667;42.872;74.622;2024-02-15T08:27:48;16.80;35.50
52799;DHT22;38667;42.872;74.622;2024-02-15T08:30:14;16.80;36.80
52799;DHT22;38667;42.872;74.622;2024-02-15T08:32:41;16.80;36.80
52799;DHT22;38667;42.872;74.622;2024-02-15T08:35:08;16.80;36.80
52799;DHT22;38667;42.872;74.622;2024-02-15T08:37:35;16.80;38.60
52799;DHT22;38667;42.872;74.622;2024-02-15T08:40:03;16.70;37.70
52799;DHT22;38667;42.872;74.622;2024-02-15T08:42:30;16.80;37.50
52799;DHT22;38667;42.872;74.622;2024-02-15T08:44:57;16.70;37.40
52799;DHT22;38667;42.872;74.622;2024-02-15T08:47:24;16.80;36.20
52799;DHT22;38667;42.872;74.622;2024-02-15T08:49:50;16.80;36.10
52799;DHT22;38667;42.872;74.622;2024-02-15T08:52:16;16.80;36.40
52799;DHT22;38667;42.872;74.622;2024-02-15T08:54:43;16.90;36.00
52799;DHT22;38667;42.872;74.622;2024-02-15T08:57:11;17.00;35.50
52799;DHT22;38667;42.872;74.622;2024-02-15T08:59:38;17.10;35.20
52799;DHT22;38667;42.872;74.622;2024-02-15T09:02:05;17.10;36.40
52799;DHT22;38667;42.872;74.622;2024-02-15T09:04:31;17.20;36.40
52799;DHT22;38667;42.872;74.622;2024-02-15T09:06:58;17.20;36.50
52799;DHT22;38667;42.872;74.622;2024-02-15T09:09:24;17.30;36.60
52799;DHT22;38667;42.872;74.622;2024-02-15T09:11:50;17.30;36.60
52799;DHT22;38667;42.872;74.622;2024-02-15T09:14:19;17.30;36.70
52799;DHT22;38667;42.872;74.622;2024-02-15T09:16:45;17.30;37.00
52799;DHT22;38667;42.872;74.622;2024-02-15T09:19:12;17.30;36.90
52799;DHT22;38667;42.872;74.622;2024-02-15T09:21:38;17.30;36.10
52799;DHT22;38667;42.872;74.622;2024-02-15T09:24:05;17.30;34.60
52799;DHT22;38667;42.872;74.622;2024-02-15T09:26:31;17.30;34.10
52799;DHT22;38667;42.872;74.622;2024-02-15T09:28:58;17.30;33.60
52799;DHT22;38667;42.872;74.622;2024-02-15T09:31:26;17.20;32.80
52799;DHT22;38667;42.872;74.622;2024-02-15T09:33:52;17.20;32.60
52799;DHT22;38667;42.872;74.622;2024-02-15T09:36:18;17.20;32.70
52799;DHT22;38667;42.872;74.622;2024-02-15T09:38:45;17.10;32.70
52799;DHT22;38667;42.872;74.622;2024-02-15T09:41:11;17.10;32.40
52799;DHT22;38667;42.872;74.622;2024-02-15T09:43:38;17.00;32.50
52799;DHT22;38667;42.872;74.622;2024-02-15T09:46:05;17.00;32.30
52799;DHT22;38667;42.872;74.622;2024-02-15T09:48:34;16.90;32.50
52799;DHT22;38667;42.872;74.622;2024-02-15T09:51:02;16.80;32.20
52799;DHT22;38667;42.872;74.622;2024-02-15T09:53:28;16.80;32.20
52799;DHT22;38667;42.872;74.622;2024-02-15T09:55:56;16.80;32.40
52799;DHT22;38667;42.872;74.622;2024-02-15T09:58:23;16.70;33.00
52799;DHT22;38667;42.872;74.622;2024-02-15T10:00:49;16.60;32.60
52799;DHT22;38667;42.872;74.622;2024-02-15T10:03:18;16.60;32.80
52799;DHT22;38667;42.872;74.622;2024-02-15T10:05:48;16.50;33.10
52799;DHT22;38667;42.872;74.622;2024-02-15T10:08:14;16.40;33.60
52799;DHT22;38667;42.872;74.622;2024-02-15T10:10:41;16.40;35.40
52799;DHT22;38667;42.872;74.622;2024-02-15T10:13:13;16.30;35.30
52799;DHT22;38667;42.872;74.622;2024-02-15T10:15:40;16.30;35.10
52799;DHT22;38667;42.872;74.622;2024-02-15T10:18:07;16.30;33.40
52799;DHT22;38667;42.872;74.622;2024-02-15T10:20:34;16.20;32.20
52799;DHT22;38667;42.872;74.622;2024-02-15T10:23:11;16.20;30.90
52799;DHT22;38667;42.872;74.622;2024-02-15T10:25:39;16.10;31.50
52799;DHT22;38667;42.872;74.622;2024-02-15T10:28:06;16.10;31.50
52799;DHT22;38667;42.872;74.622;2024-02-15T10:30:34;16.00;31.10
52799;DHT22;38667;42.872;74.622;2024-02-15T10:33:01;16.00;30.60
52799;DHT22;38667;42.872;74.622;2024-02-15T10:35:28;16.10;29.40
52799;DHT22;38667;42.872;74.622;2024-02-15T10:38:05;16.10;29.40
52799;DHT22;38667;42.872;74.622;2024-02-15T10:40:34;16.10;29.70
52799;DHT22;38667;42.872;74.622;2024-02-15T10:43:03;16.00;29.50
52799;DHT22;38667;42.872;74.622;2024-02-15T10:45:30;16.00;29.60
52799;DHT22;38667;42.872;74.622;2024-02-15T10:47:57;15.90;29.60
52799;DHT22;38667;42.872;74.622;2024-02-15T10:50:23;15.90;30.00
52799;DHT22;38667;42.872;74.622;2024-02-15T10:52:55;15.90;29.90
52799;DHT22;38667;42.872;74.622;2024-02-15T10:55:29;15.80;30.20
52799;DHT22;38667;42.872;74.622;2024-02-15T10:58:01;15.80;30.30
52799;DHT22;38667;42.872;74.622;2024-02-15T11:00:28;15.80;30.60
52799;DHT22;38667;42.872;74.622;2024-02-15T11:03:01;15.70;30.70
52799;DHT22;38667;42.872;74.622;2024-02-15T11:05:31;15.70;30.90
52799;DHT22;38667;42.872;74.622;2024-02-15T11:07:57;15.70;31.10
52799;DHT22;38667;42.872;74.622;2024-02-15T11:10:25;15.60;31.00
52799;DHT22;38667;42.872;74.622;2024-02-15T11:12:52;15.60;31.00
52799;DHT22;38667;42.872;74.622;2024-02-15T11:15:45;15.60;30.80
52799;DHT22;38667;42.872;74.622;2024-02-15T11:18:11;15.60;30.70
52799;DHT22;38667;42.872;74.622;2024-02-15T11:20:47;15.60;31.00
52799;DHT22;38667;42.872;74.622;2024-02-15T11:23:24;15.60;31.00
52799;DHT22;38667;42.872;74.622;2024-02-15T11:25:51;15.60;31.00
52799;DHT22;38667;42.872;74.622;2024-02-15T11:28:39;15.60;31.30
52799;DHT22;38667;42.872;74.622;2024-02-15T11:31:09;15.60;31.60
52799;DHT22;38667;42.872;74.622;2024-02-15T11:33:36;15.50;31.60
52799;DHT22;38667;42.872;74.622;2024-02-15T11:36:03;15.50;31.60
52799;DHT22;38667;42.872;74.622;2024-02-15T11:38:30;15.50;31.90
52799;DHT22;38667;42.872;74.622;2024-02-15T11:41:03;15.50;32.10
52799;DHT22;38667;42.872;74.622;2024-02-15T11:43:48;15.40;32.20
52799;DHT22;38667;42.872;74.622;2024-02-15T11:46:17;15.40;32.60
52799;DHT22;38667;42.872;74.622;2024-02-15T11:48:43;15.40;31.90
52799;DHT22;38667;42.872;74.622;2024-02-15T11:51:10;15.30;33.10
52799;DHT22;38667;42.872;74.622;2024-02-15T11:53:36;15.20;34.50
52799;DHT22;38667;42.872;74.622;2024-02-15T11:56:03;15.10;34.50
52799;DHT22;38667;42.872;74.622;2024-02-15T11:58:29;15.00;36.30
52799;DHT22;38667;42.872;74.622;2024-02-15T12:00:59;14.90;36.30
52799;DHT22;38667;42.872;74.622;2024-02-15T12:03:28;14.80;36.80
52799;DHT22;38667;42.872;74.622;2024-02-15T12:05:55;14.70;37.00
52799;DHT22;38667;42.872;74.622;2024-02-15T12:08:21;14.70;38.10
52799;DHT22;38667;42.872;74.622;2024-02-15T12:10:57;14.60;38.50
52799;DHT22;38667;42.872;74.622;2024-02-15T12:13:24;14.60;37.70
52799;DHT22;38667;42.872;74.622;2024-02-15T12:16:00;14.50;38.70
52799;DHT22;38667;42.872;74.622;2024-02-15T12:18:28;14.50;38.30
52799;DHT22;38667;42.872;74.622;2024-02-15T12:20:54;14.40;38.50
52799;DHT22;38667;42.872;74.622;2024-02-15T12:23:21;14.40;39.30
52799;DHT22;38667;42.872;74.622;2024-02-15T12:25:52;14.30;40.20
52799;DHT22;38667;42.872;74.622;2024-02-15T12:28:19;14.30;39.00
52799;DHT22;38667;42.872;74.622;2024-02-15T12:30:45;14.30;38.00
52799;DHT22;38667;42.872;74.622;2024-02-15T12:33:12;14.30;37.00
52799;DHT22;38667;42.872;74.622;2024-02-15T12:35:40;14.40;39.40
52799;DHT22;38667;42.872;74.622;2024-02-15T12:38:07;14.40;38.00
52799;DHT22;38667;42.872;74.622;2024-02-15T12:40:34;14.30;38.60
52799;DHT22;38667;42.872;74.622;2024-02-15T12:43:01;14.30;38.70
52799;DHT22;38667;42.872;74.622;2024-02-15T12:45:27;14.30;39.30
52799;DHT22;38667;42.872;74.622;2024-02-15T12:47:54;14.30;37.40
52799;DHT22;38667;42.872;74.622;2024-02-15T12:50:22;14.40;35.70
52799;DHT22;38667;42.872;74.622;2024-02-15T12:52:51;14.50;35.50
52799;DHT22;38667;42.872;74.622;2024-02-15T12:55:18;14.50;36.40
52799;DHT22;38667;42.872;74.622;2024-02-15T12:57:46;14.50;37.10
52799;DHT22;38667;42.872;74.622;2024-02-15T13:00:14;14.50;36.60
52799;DHT22;38667;42.872;74.622;2024-02-15T13:02:40;14.50;36.30
52799;DHT22;38667;42.872;74.622;2024-02-15T13:05:07;14.50;36.40
52799;DHT22;38667;42.872;74.622;2024-02-15T13:07:34;14.50;36.30
52799;DHT22;38667;42.872;74.622;2024-02-15T13:10:02;14.40;36.00
52799;DHT22;38667;42.872;74.622;2024-02-15T13:12:31;14.40;36.40
52799;DHT22;38667;42.872;74.622;2024-02-15T13:14:57;14.40;36.30
52799;DHT22;38667;42.872;74.622;2024-02-15T13:17:24;14.30;36.30
52799;DHT22;38667;42.872;74.622;2024-02-15T13:19:50;14.30;36.30
52799;DHT22;38667;42.872;74.622;2024-02-15T13:22:16;14.30;36.20
52799;DHT22;38667;42.872;74.622;2024-02-15T13:24:43;14.30;34.90
52799;DHT22;38667;42.872;74.622;2024-02-15T13:27:11;14.20;34.90
52799;DHT22;38667;42.872;74.622;2024-02-15T13:29:37;14.20;35.00
52799;DHT22;38667;42.872;74.622;2024-02-15T13:32:04;14.20;34.90
52799;DHT22;38667;42.872;74.622;2024-02-15T13:34:30;14.10;35.30
52799;DHT22;38667;42.872;74.622;2024-02-15T13:36:57;14.10;35.30
52799;DHT22;38667;42.872;74.622;2024-02-15T13:39:23;14.10;35.50
52799;DHT22;38667;42.872;74.622;2024-02-15T13:41:49;14.00;35.50
52799;DHT22;38667;42.872;74.622;2024-02-15T13:44:17;14.00;35.80
52799;DHT22;38667;42.872;74.622;2024-02-15T13:46:44;13.90;35.90
52799;DHT22;38667;42.872;74.622;2024-02-15T13:49:12;13.80;35.50
52799;DHT22;38667;42.872;74.622;2024-02-15T13:51:38;13.80;35.70
52799;DHT22;38667;42.872;74.622;2024-02-15T13:54:05;13.70;35.40
52799;DHT22;38667;42.872;74.622;2024-02-15T13:56:31;13.80;35.40
52799;DHT22;38667;42.872;74.622;2024-02-15T13:58:58;13.70;35.70
52799;DHT22;38667;42.872;74.622;2024-02-15T14:01:26;13.70;36.10
52799;DHT22;38667;42.872;74.622;2024-02-15T14:03:52;13.60;36.00
52799;DHT22;38667;42.872;74.622;2024-02-15T14:06:18;13.70;36.30
52799;DHT22;38667;42.872;74.622;2024-02-15T14:08:45;13.70;35.90
52799;DHT22;38667;42.872;74.622;2024-02-15T14:11:11;13.60;35.80
52799;DHT22;38667;42.872;74.622;2024-02-15T14:13:37;13.70;35.70
52799;DHT22;38667;42.872;74.622;2024-02-15T14:16:05;13.70;35.60
52799;DHT22;38667;42.872;74.622;2024-02-15T14:18:33;13.70;35.70
52799;DHT22;38667;42.872;74.622;2024-02-15T14:20:59;13.70;35.60
52799;DHT22;38667;42.872;74.622;2024-02-15T14:23:26;13.70;35.40
52799;DHT22;38667;42.872;74.622;2024-02-15T14:25:52;13.60;35.40
52799;DHT22;38667;42.872;74.622;2024-02-15T14:28:19;13.70;35.60
52799;DHT22;38667;42.872;74.622;2024-02-15T14:30:45;13.70;35.60
52799;DHT22;38667;42.872;74.622;2024-02-15T14:33:11;13.70;35.70
52799;DHT22;38667;42.872;74.622;2024-02-15T14:35:39;13.60;35.70
52799;DHT22;38667;42.872;74.622;2024-02-15T14:38:07;13.70;35.80
52799;DHT22;38667;42.872;74.622;2024-02-15T14:40:34;13.60;36.30
52799;DHT22;38667;42.872;74.622;2024-02-15T14:43:01;13.60;37.30
52799;DHT22;38667;42.872;74.622;2024-02-15T14:45:27;13.50;37.90
52799;DHT22;38667;42.872;74.622;2024-02-15T14:47:54;13.50;39.50
52799;DHT22;38667;42.872;74.622;2024-02-15T14:50:20;13.30;39.90
52799;DHT22;38667;42.872;74.622;2024-02-15T14:52:48;13.20;43.00
52799;DHT22;38667;42.872;74.622;2024-02-15T14:55:15;13.20;41.20
52799;DHT22;38667;42.872;74.622;2024-02-15T14:57:41;13.10;42.20
52799;DHT22;38667;42.872;74.622;2024-02-15T15:00:09;13.00;41.90
52799;DHT22;38667;42.872;74.622;2024-02-15T15:02:41;13.00;41.00
52799;DHT22;38667;42.872;74.622;2024-02-15T15:05:08;13.00;40.90
52799;DHT22;38667;42.872;74.622;2024-02-15T15:07:34;12.90;41.80
52799;DHT22;38667;42.872;74.622;2024-02-15T15:10:03;12.90;40.60
52799;DHT22;38667;42.872;74.622;2024-02-15T15:12:29;12.90;39.70
52799;DHT22;38667;42.872;74.622;2024-02-15T15:14:56;13.00;40.70
52799;DHT22;38667;42.872;74.622;2024-02-15T15:17:22;13.10;40.80
52799;DHT22;38667;42.872;74.622;2024-02-15T15:19:48;13.00;42.10
52799;DHT22;38667;42.872;74.622;2024-02-15T15:22:15;13.00;41.70